Bugsky — ---- — position and weather

sailwx.info

Track history (hours):
 
Tides and Currents Weather Stations Pressure Air Temp Water Temp Dewpoint Dewpoint Depression Visibility Wind Speed Wind Dir Waves Ship Positions

Bugsky

Last reported at 2014-Apr-07 16:30 UTC. Time now 2014-Jul-28 16:31 UTC.
Position N 31°14' E 121°30'.
Warning: this ship's position is months out of date.

Length 13 m.

Type: Tug. MMSI: 272016200.

Date/timePositionNaut miles runAvg speedWind from/ knotsBaromVisibWave heightAir tempDewpointWater temp
2014-Apr-07 16:30N 31°14' E 121°30'0 0.0
2014-Apr-07 15:18N 31°14' E 121°30'427327423.3
2014-Apr-07 15:09N 46°57' E 031°60'0 0.0
2014-Apr-07 14:33N 46°57' E 031°60'427396757.7
2014-Apr-07 14:30N 31°14' E 121°30'1 1.1
2014-Apr-07 13:33N 31°15' E 121°30'4273530429.8
2014-Apr-07 13:33N 46°57' E 031°60'0 0.0
2014-Apr-07 12:33N 46°57' E 031°60'4273295829.4
2014-Apr-07 12:32N 31°15' E 121°30'1 0.6
2014-Apr-07 11:33N 31°15' E 121°31'4273307691.7
2014-Apr-07 11:33N 46°57' E 031°60'42734331.2
2014-Apr-07 10:33N 31°14' E 121°30'4273320509.2
2014-Apr-07 10:33N 46°57' E 031°60'0 0.0
2014-Apr-07 09:33N 46°57' E 031°60'4273480764.2
2014-Apr-07 09:32N 31°14' E 121°30'0 0.1
2014-Apr-07 08:33N 31°14' E 121°30'4273327328.5
2014-Apr-07 08:33N 46°57' E 031°60'42734330.0
2014-Apr-07 07:33N 31°14' E 121°30'4273327329.0
2014-Apr-07 07:33N 46°57' E 031°60'0 0.0
2014-Apr-07 06:33N 46°57' E 031°60'427311879.7
2014-Apr-07 06:11N 31°14' E 121°30'42736193.3
2014-Apr-07 05:30N 46°57' E 031°60'4273439548.7
2014-Apr-07 05:29N 31°14' E 121°30'42734319.0
2014-Apr-07 04:30N 46°57' E 031°60'0 0.0
2014-Apr-07 03:33N 46°57' E 031°60'427326755.1
2014-Apr-07 03:23N 31°14' E 121°30'42735085.7
2014-Apr-07 02:33N 46°57' E 031°60'427316418.5
2014-Apr-07 02:17N 31°14' E 121°30'42735772.7
2014-Apr-07 01:33N 46°57' E 031°60'42739290.0
2014-Apr-07 01:05N 31°14' E 121°30'42737917.8
2014-Apr-07 00:33N 46°57' E 031°60'427326708.7
2014-Apr-07 00:23N 31°14' E 121°30'42735085.7
2014-Apr-06 23:33N 46°57' E 031°60'427371223.1
2014-Apr-06 23:29N 31°14' E 121°30'42734547.5
2014-Apr-06 22:33N 46°57' E 031°60'0 0.0
2014-Apr-06 21:33N 46°57' E 031°60'427371223.0
2014-Apr-06 21:29N 31°14' E 121°30'42734546.2
2014-Apr-06 20:33N 46°57' E 031°60'0 0.0
2014-Apr-06 19:33N 46°57' E 031°60'427326708.7
2014-Apr-06 19:23N 31°14' E 121°30'42734893.2
2014-Apr-06 18:31N 46°57' E 031°60'427333736.3
2014-Apr-06 18:23N 31°14' E 121°30'42734893.1
2014-Apr-06 17:31N 46°57' E 031°60'4273158600.0
2014-Apr-06 17:29N 31°14' E 121°30'424114415.5
2014-Apr-06 17:11N 44°37' E 033°31'0 0.0
2014-Apr-06 16:33N 44°37' E 033°31'1543337.5
2014-Apr-06 16:31N 46°57' E 031°60'4273132623.6
2014-Apr-06 16:29N 31°14' E 121°30'42414513.9
2014-Apr-06 15:32N 44°37' E 033°31'1545484.2
2014-Apr-06 15:31N 46°57' E 031°60'427318358.2
2014-Apr-06 15:17N 31°14' E 121°30'42405851.2
2014-Apr-06 14:33N 44°37' E 033°31'1543619.6
2014-Apr-06 14:31N 46°57' E 031°60'427318358.2
2014-Apr-06 14:17N 31°14' E 121°30'0 0.6
2014-Apr-06 13:33N 31°14' E 121°29'4240231276.5
2014-Apr-06 13:32N 44°37' E 033°31'1545377.9
2014-Apr-06 13:31N 46°57' E 031°60'42734483.3
2014-Apr-06 12:33N 31°15' E 121°30'42402180564.3
2014-Apr-06 12:33N 44°37' E 033°31'1543418.6
2014-Apr-06 12:31N 46°57' E 031°60'154161.4
2014-Apr-06 11:33N 44°37' E 033°31'4240726857.3
2014-Apr-06 11:33N 31°14' E 121°29'4273104642.7
2014-Apr-06 11:31N 46°57' E 031°60'154161.0
2014-Apr-06 10:33N 44°37' E 033°31'4241293579.0
2014-Apr-06 10:32N 31°14' E 121°30'4273142448.2
2014-Apr-06 10:31N 46°57' E 031°60'154161.0
2014-Apr-06 09:33N 44°37' E 033°31'1543438.7
2014-Apr-06 09:31N 46°57' E 031°60'427335611.5
2014-Apr-06 09:23N 31°14' E 121°30'42405056.6
2014-Apr-06 08:33N 44°37' E 033°31'1543819.3
2014-Apr-06 08:31N 46°57' E 031°60'154160.3
2014-Apr-06 07:33N 44°37' E 033°31'1543691.1
2014-Apr-06 07:31N 46°57' E 031°60'427310168.0
2014-Apr-06 07:05N 31°14' E 121°30'42417606.4
2014-Apr-06 06:32N 44°37' E 033°31'4240436165.3
2014-Apr-06 06:31N 31°14' E 121°30'4273334434.4
2014-Apr-06 06:31N 46°57' E 031°60'154157.9
2014-Apr-06 05:32N 44°37' E 033°31'1546087.2
2014-Apr-06 05:31N 46°57' E 031°60'154160.6
2014-Apr-06 04:33N 44°37' E 033°31'1543618.7
2014-Apr-06 04:31N 46°57' E 031°60'154159.1
2014-Apr-06 03:33N 44°37' E 033°31'1544774.9
2014-Apr-06 03:31N 46°57' E 031°60'42749467.5
2014-Apr-06 03:04N 31°14' E 121°30'42408355.5
2014-Apr-06 02:33N 44°36' E 033°32'1553714.4
2014-Apr-06 02:31N 46°57' E 031°60'0 0.0
2014-Apr-06 01:31N 46°57' E 031°60'427417056.2
2014-Apr-06 01:16N 31°14' E 121°30'42745702.3
2014-Apr-06 00:31N 46°57' E 031°60'427484069.3
2014-Apr-06 00:28N 31°14' E 121°30'42744502.4
2014-Apr-05 23:31N 46°57' E 031°60'427412171.4
2014-Apr-05 23:10N 31°14' E 121°30'42746594.4
2014-Apr-05 22:31N 46°57' E 031°60'42749461.7
2014-Apr-05 22:04N 31°14' E 121°30'42747785.8
2014-Apr-05 21:31N 46°57' E 031°60'0 0.0
2014-Apr-05 20:31N 46°57' E 031°60'427417037.3
2014-Apr-05 20:16N 31°14' E 121°30'42745706.5
2014-Apr-05 19:31N 46°57' E 031°60'427417018.4
2014-Apr-05 19:16N 31°14' E 121°30'0 0.0
2014-Apr-05 18:33N 31°14' E 121°30'427497991.5
2014-Apr-05 18:31N 46°57' E 031°60'42744467.1
2014-Apr-05 17:33N 31°14' E 121°30'427498619.8
2014-Apr-05 17:31N 46°57' E 031°60'42744468.4
2014-Apr-05 16:33N 31°14' E 121°30'427497991.6
2014-Apr-05 16:31N 46°57' E 031°60'42734468.2
2014-Apr-05 15:33N 31°14' E 121°30'427398616.1
2014-Apr-05 15:31N 46°57' E 031°60'42744467.1
2014-Apr-05 14:33N 31°14' E 121°30'427497991.6
2014-Apr-05 14:31N 46°57' E 031°60'0 0.0
2014-Apr-05 13:31N 46°57' E 031°60'427427229.5
2014-Apr-05 13:21N 31°14' E 121°30'42745069.1
2014-Apr-05 12:31N 46°57' E 031°60'427411972.5
2014-Apr-05 12:09N 31°14' E 121°30'42746648.5
2014-Apr-05 11:31N 46°57' E 031°60'427427181.4
2014-Apr-05 11:21N 31°14' E 121°30'42745171.3
2014-Apr-05 10:32N 46°57' E 031°60'427458055.3
2014-Apr-05 10:27N 31°14' E 121°30'42744613.1
2014-Apr-05 09:32N 46°57' E 031°60'427458055.4
2014-Apr-05 09:27N 31°14' E 121°30'42744375.6
2014-Apr-05 08:29N 46°57' E 031°60'427434650.2
2014-Apr-05 08:21N 31°14' E 121°30'42745176.5
2014-Apr-05 07:32N 46°57' E 031°60'0 0.0
2014-Apr-05 06:32N 46°57' E 031°60'0 0.0
2014-Apr-05 05:32N 46°57' E 031°60'0 0.0
2014-Apr-05 04:32N 46°57' E 031°60'427457837.1
2014-Apr-05 04:27N 31°14' E 121°30'42744611.7
2014-Apr-05 03:32N 46°57' E 031°60'154154.0
2014-Apr-05 02:32N 44°37' E 033°32'15479069.0
2014-Apr-05 02:32N 46°57' E 031°60'427411438.4
2014-Apr-05 02:09N 31°14' E 121°30'42746825.5
2014-Apr-05 01:32N 46°57' E 031°60'427457837.2
2014-Apr-05 01:27N 31°14' E 121°30'42744614.5
2014-Apr-05 00:32N 46°57' E 031°60'0 0.0
2014-Apr-04 23:32N 46°57' E 031°60'427424576.2
2014-Apr-04 23:21N 31°14' E 121°30'0 0.0
2014-Apr-04 22:33N 31°14' E 121°30'4274161944.0
2014-Apr-04 22:32N 46°57' E 031°60'0 0.0
2014-Apr-04 21:32N 46°57' E 031°60'427424537.0
2014-Apr-04 21:21N 31°14' E 121°30'42745171.3
2014-Apr-04 20:32N 46°57' E 031°60'427415603.1
2014-Apr-04 20:15N 31°14' E 121°30'0 0.0
2014-Apr-04 19:33N 31°14' E 121°30'4274161944.1
2014-Apr-04 19:32N 46°57' E 031°60'0 0.0
2014-Apr-04 18:32N 46°57' E 031°60'0 0.0
2014-Apr-04 17:32N 46°57' E 031°60'15318384.8
2014-Apr-04 17:31N 44°38' E 033°31'424015967.5
2014-Apr-04 17:15N 31°14' E 121°30'42416039.0
2014-Apr-04 16:33N 44°37' E 033°31'1546442.1
2014-Apr-04 16:32N 46°57' E 031°60'42734388.0
2014-Apr-04 15:33N 31°14' E 121°30'4273480756.0
2014-Apr-04 15:33N 46°57' E 031°60'15461545.5
2014-Apr-04 15:33N 44°37' E 033°31'0 0.0
2014-Apr-04 14:33N 44°37' E 033°31'15417305.9
2014-Apr-04 14:33N 46°57' E 031°60'427447192.3
2014-Apr-04 14:27N 31°14' E 121°30'2 1.8
2014-Apr-04 13:33N 31°15' E 121°31'42412180960.7
2014-Apr-04 13:33N 44°37' E 033°31'15417871.8
2014-Apr-04 13:33N 46°57' E 031°60'153154.3
2014-Apr-04 12:33N 44°38' E 033°31'15322062.0
2014-Apr-04 12:33N 46°57' E 031°60'4273668829.8
2014-Apr-04 12:32N 31°15' E 121°30'1 0.6
2014-Apr-04 11:33N 31°15' E 121°31'42417633181.3
2014-Apr-04 11:33N 44°37' E 033°31'15414963.2
2014-Apr-04 11:33N 46°57' E 031°60'154154.9
2014-Apr-04 10:33N 44°37' E 033°31'15424083.6
2014-Apr-04 10:33N 46°57' E 031°60'4274732606.2
2014-Apr-04 10:32N 31°15' E 121°31'42414270.4
2014-Apr-04 09:33N 44°37' E 033°31'154110783.1
2014-Apr-04 09:33N 46°57' E 031°60'154156.1
2014-Apr-04 08:34N 44°37' E 033°31'15410860.7
2014-Apr-04 08:33N 46°57' E 031°60'427454171.3
2014-Apr-04 08:28N 31°14' E 121°30'42414613.6
2014-Apr-04 07:33N 44°37' E 033°31'15469238.7
2014-Apr-04 07:33N 46°57' E 031°60'427415323.4
2014-Apr-04 07:16N 31°14' E 121°30'42415947.1
2014-Apr-04 06:33N 44°37' E 033°31'15419780.8
2014-Apr-04 06:33N 46°57' E 031°60'427453981.2
2014-Apr-04 06:28N 31°14' E 121°30'42744640.9
2014-Apr-04 05:33N 46°57' E 031°60'15479118.7
2014-Apr-04 05:33N 44°37' E 033°31'1 0.7
2014-Apr-04 04:33N 44°38' E 033°31'15314516.5
2014-Apr-04 04:33N 46°57' E 031°60'427423852.2
2014-Apr-04 04:22N 31°14' E 121°30'42405229.6
2014-Apr-04 03:33N 44°38' E 033°31'15314915.1
2014-Apr-04 03:33N 46°57' E 031°60'427423926.4
2014-Apr-04 03:22N 31°14' E 121°30'42745295.0
2014-Apr-04 02:33N 46°56' E 031°59'1558983.8
2014-Apr-04 02:32N 44°36' E 033°32'424015373.2
2014-Apr-04 02:16N 31°14' E 121°30'42746008.1
2014-Apr-04 01:33N 46°56' E 031°59'427448234.3
2014-Apr-04 01:28N 31°14' E 121°30'42744642.3
2014-Apr-04 00:33N 46°57' E 031°60'427453792.6
2014-Apr-04 00:28N 31°14' E 121°30'42744640.9
2014-Apr-03 23:33N 46°57' E 031°60'427415308.1
2014-Apr-03 23:16N 31°14' E 121°30'42745930.9
2014-Apr-03 22:33N 46°57' E 031°60'427411270.8
2014-Apr-03 22:10N 31°14' E 121°30'42746880.4
2014-Apr-03 21:33N 46°57' E 031°60'427423852.2
2014-Apr-03 21:22N 31°14' E 121°30'42745209.9
2014-Apr-03 20:33N 46°57' E 031°60'427423778.5
2014-Apr-03 20:22N 31°14' E 121°30'42745206.3
2014-Apr-03 19:33N 46°57' E 031°60'427453792.6
2014-Apr-03 19:28N 31°14' E 121°30'42744642.3
2014-Apr-03 18:33N 46°57' E 031°60'0 0.0
2014-Apr-03 17:33N 46°57' E 031°60'153275775.4
2014-Apr-03 17:33N 44°38' E 033°31'424053560.8
2014-Apr-03 17:28N 31°14' E 121°30'42744643.7
2014-Apr-03 16:33N 46°57' E 031°60'1548793.7
2014-Apr-03 16:32N 44°37' E 033°31'424126140.5
2014-Apr-03 16:22N 31°14' E 121°30'42415174.9
2014-Apr-03 15:33N 44°37' E 033°31'1547911.1
2014-Apr-03 15:32N 46°57' E 031°59'427416369.3
2014-Apr-03 15:16N 31°14' E 121°30'42746040.3
2014-Apr-03 14:33N 46°57' E 031°60'15436927.7
2014-Apr-03 14:33N 44°37' E 033°31'424122549.9
2014-Apr-03 14:22N 31°14' E 121°30'42745288.6
2014-Apr-03 13:33N 46°57' E 031°60'1546517.9
2014-Apr-03 13:32N 44°37' E 033°31'424111513.2
2014-Apr-03 13:10N 31°14' E 121°30'42747031.4
2014-Apr-03 12:33N 46°57' E 031°60'1534210.5
2014-Apr-03 12:31N 44°38' E 033°31'424011907.0
2014-Apr-03 12:10N 31°14' E 121°30'42747025.0
2014-Apr-03 11:33N 46°57' E 031°60'154682.3
2014-Apr-03 11:20N 44°37' E 033°31'424164145.1
2014-Apr-03 11:16N 31°14' E 121°30'42746035.6
2014-Apr-03 10:33N 46°57' E 031°60'15412309.5
2014-Apr-03 10:33N 44°37' E 033°31'424153378.7
2014-Apr-03 10:28N 31°14' E 121°30'42744704.8
2014-Apr-03 09:33N 46°57' E 031°60'15461539.6
2014-Apr-03 09:33N 44°37' E 033°31'424110896.7
2014-Apr-03 09:10N 31°14' E 121°30'42416980.4
2014-Apr-03 08:33N 44°37' E 033°31'15492304.9
2014-Apr-03 08:33N 46°57' E 031°60'427447047.9
2014-Apr-03 08:28N 31°14' E 121°30'42414674.3
2014-Apr-03 07:33N 44°37' E 033°31'15479122.4
2014-Apr-03 07:33N 46°57' E 031°60'427422394.0
2014-Apr-03 07:22N 31°14' E 121°30'42415249.8
2014-Apr-03 06:33N 44°37' E 033°31'154184647.6
2014-Apr-03 06:33N 46°57' E 031°60'427410911.1
2014-Apr-03 06:10N 31°14' E 121°30'42747018.5
2014-Apr-03 05:33N 46°57' E 031°60'15450361.6
2014-Apr-03 05:33N 44°37' E 033°31'424148311.6
2014-Apr-03 05:28N 31°14' E 121°30'42404672.5
2014-Apr-03 04:33N 44°38' E 033°31'15391957.6
2014-Apr-03 04:33N 46°57' E 031°60'427310934.2
2014-Apr-03 04:10N 31°14' E 121°30'42406964.0
2014-Apr-03 03:33N 44°38' E 033°31'1534561.2
2014-Apr-03 03:31N 46°57' E 031°60'427474322.1
2014-Apr-03 03:28N 31°14' E 121°30'42404637.1
2014-Apr-03 02:33N 44°36' E 033°32'1555516.0
2014-Apr-03 02:31N 46°57' E 031°60'427427085.7
2014-Apr-03 02:22N 31°14' E 121°30'42745074.1
2014-Apr-03 01:31N 46°57' E 031°60'427427133.5
2014-Apr-03 01:22N 31°14' E 121°30'42745072.4
2014-Apr-03 00:31N 46°57' E 031°60'42749335.4
2014-Apr-03 00:04N 31°14' E 121°30'42747881.5
2014-Apr-02 23:31N 46°57' E 031°60'427427085.7
2014-Apr-02 23:22N 31°14' E 121°30'42745075.8
2014-Apr-02 22:31N 46°57' E 031°60'0 0.0
2014-Apr-02 21:31N 46°57' E 031°60'427427085.7
2014-Apr-02 21:22N 31°14' E 121°30'42745127.1
2014-Apr-02 20:32N 46°57' E 031°59'427464378.7
2014-Apr-02 20:28N 31°14' E 121°30'42744476.2
2014-Apr-02 19:31N 46°57' E 031°60'427494384.5
2014-Apr-02 19:28N 31°14' E 121°30'42744476.2
2014-Apr-02 18:31N 46°57' E 031°60'427494384.5
2014-Apr-02 18:28N 31°14' E 121°30'42404663.9
2014-Apr-02 17:33N 44°38' E 033°31'1533363.0
2014-Apr-02 17:31N 46°57' E 031°60'427417403.5
2014-Apr-02 17:16N 31°14' E 121°30'42415851.5
2014-Apr-02 16:32N 44°37' E 033°31'1545177.9
2014-Apr-02 16:31N 46°57' E 031°60'154161.5
2014-Apr-02 15:33N 44°37' E 033°31'1543239.2
2014-Apr-02 15:31N 46°57' E 031°60'427417423.2
2014-Apr-02 15:16N 31°14' E 121°30'42415951.8
2014-Apr-02 14:33N 44°37' E 033°31'1543717.0
2014-Apr-02 14:31N 46°57' E 031°60'427493240.4
2014-Apr-02 14:28N 31°14' E 121°30'42414456.1
2014-Apr-02 13:31N 44°37' E 033°31'15455397.1
2014-Apr-02 13:31N 46°57' E 031°60'427493240.5
2014-Apr-02 13:28N 31°14' E 121°30'42404585.4
2014-Apr-02 12:32N 44°38' E 033°31'1535203.5
2014-Apr-02 12:31N 46°57' E 031°60'427493240.4
2014-Apr-02 12:28N 31°14' E 121°30'42414654.4
2014-Apr-02 11:33N 44°37' E 033°31'1543550.7
2014-Apr-02 11:31N 46°57' E 031°60'427429360.1
2014-Apr-02 11:22N 31°14' E 121°30'42415192.6
2014-Apr-02 10:33N 44°37' E 033°31'1544072.9
2014-Apr-02 10:31N 46°57' E 031°60'427429360.1
2014-Apr-02 10:22N 31°14' E 121°30'42415253.4
2014-Apr-02 09:33N 44°37' E 033°31'1543258.3
2014-Apr-02 09:31N 46°57' E 031°60'1 0.7
2014-Apr-02 08:33N 46°57' E 031°59'15425165.9
2014-Apr-02 08:33N 44°37' E 033°31'0 0.0
2014-Apr-02 07:33N 44°37' E 033°31'1544654.9
2014-Apr-02 07:31N 46°57' E 031°59'154159.3
2014-Apr-02 06:33N 44°37' E 033°31'1544989.0
2014-Apr-02 06:31N 46°57' E 031°60'154159.8
2014-Apr-02 05:33N 44°37' E 033°31'1544133.7
2014-Apr-02 05:31N 46°57' E 031°60'427464914.2
2014-Apr-02 05:27N 31°14' E 121°30'42404688.2
2014-Apr-02 04:33N 44°38' E 033°31'1535155.7
2014-Apr-02 04:31N 46°57' E 031°60'427425770.0
2014-Apr-02 04:21N 31°14' E 121°30'42405363.8
2014-Apr-02 03:33N 44°38' E 033°31'1533515.5
2014-Apr-02 03:31N 46°57' E 031°60'155160.8
2014-Apr-02 02:33N 44°36' E 033°32'1554190.8
2014-Apr-02 02:31N 46°57' E 031°60'0 0.0
2014-Apr-02 01:31N 46°57' E 031°60'0 0.0
2014-Apr-02 00:31N 46°57' E 031°60'427416059.2
2014-Apr-02 00:15N 31°14' E 121°30'0 0.0
2014-Apr-01 23:33N 31°14' E 121°30'4274126104.3
2014-Apr-01 23:31N 46°57' E 031°60'0 0.0
2014-Apr-01 22:31N 46°57' E 031°60'0 0.0
2014-Apr-01 21:31N 46°57' E 031°60'427411672.7
2014-Apr-01 21:09N 31°14' E 121°30'42746744.7
2014-Apr-01 20:31N 46°57' E 031°60'427416042.4
2014-Apr-01 20:15N 31°14' E 121°30'42745825.3
2014-Apr-01 19:31N 46°57' E 031°60'427464371.1
2014-Apr-01 19:27N 31°14' E 121°30'0 0.0
2014-Apr-01 18:33N 31°14' E 121°30'4274127146.1
2014-Apr-01 18:31N 46°57' E 031°60'153159.5
2014-Apr-01 17:33N 44°38' E 033°31'1533941.1
2014-Apr-01 17:31N 46°57' E 031°60'154160.4
2014-Apr-01 16:33N 44°37' E 033°31'1543769.0
2014-Apr-01 16:31N 46°57' E 031°60'427411655.1
2014-Apr-01 16:09N 31°14' E 121°30'42417074.3
2014-Apr-01 15:33N 44°37' E 033°31'1544540.4
2014-Apr-01 15:31N 46°57' E 031°60'154159.7
2014-Apr-01 14:33N 44°37' E 033°31'1544196.3
2014-Apr-01 14:31N 46°57' E 031°60'427425726.9
2014-Apr-01 14:21N 31°14' E 121°30'42415260.7
2014-Apr-01 13:32N 44°37' E 033°31'1545540.2
2014-Apr-01 13:31N 46°57' E 031°60'427416042.4
2014-Apr-01 13:15N 31°14' E 121°30'1 1.8
2014-Apr-01 12:33N 31°15' E 121°30'4240130460.2
2014-Apr-01 12:31N 44°38' E 033°31'15316716.1
2014-Apr-01 12:31N 46°57' E 031°60'42734458.7
2014-Apr-01 11:33N 31°15' E 121°30'4240412548.0
2014-Apr-01 11:33N 44°37' E 033°31'1544989.1
2014-Apr-01 11:31N 46°57' E 031°60'42734432.3
2014-Apr-01 10:33N 31°15' E 121°31'4241126170.7
2014-Apr-01 10:31N 44°37' E 033°31'15461553.8
2014-Apr-01 10:31N 46°57' E 031°60'154159.9
2014-Apr-01 09:33N 44°37' E 033°31'1544133.7
2014-Apr-01 09:31N 46°57' E 031°60'427364370.0
2014-Apr-01 09:27N 31°14' E 121°30'42414727.8
2014-Apr-01 08:33N 44°37' E 033°31'1544196.3
2014-Apr-01 08:31N 46°57' E 031°60'427325683.6
2014-Apr-01 08:21N 31°14' E 121°30'42415273.3
2014-Apr-01 07:33N 44°37' E 033°31'1545176.8
2014-Apr-01 07:31N 46°57' E 031°60'427325683.5
2014-Apr-01 07:21N 31°14' E 121°30'42415345.2
2014-Apr-01 06:33N 44°37' E 033°31'1543818.2
2014-Apr-01 06:31N 46°57' E 031°60'154160.2
2014-Apr-01 05:33N 44°37' E 033°31'4240763286.3
2014-Apr-01 05:33N 31°14' E 121°30'4273125074.6
2014-Apr-01 05:31N 46°57' E 031°60'153159.7
2014-Apr-01 04:33N 44°38' E 033°31'4240636018.2
2014-Apr-01 04:33N 31°14' E 121°30'4273126099.7
2014-Apr-01 04:31N 46°57' E 031°60'153159.7
2014-Apr-01 03:33N 44°38' E 033°31'1533858.4
2014-Apr-01 03:31N 46°57' E 031°60'427364100.7
2014-Apr-01 03:27N 31°14' E 121°30'42404763.0
2014-Apr-01 02:33N 44°36' E 033°32'1551654.2
2014-Apr-01 02:28N 46°57' E 031°60'4273260748.5
2014-Apr-01 02:27N 31°14' E 121°30'0 0.0
2014-Apr-01 01:33N 31°14' E 121°30'4273126099.7
2014-Apr-01 01:31N 46°57' E 031°60'42734423.3
2014-Apr-01 00:33N 31°14' E 121°30'4273127141.8
2014-Apr-01 00:31N 46°57' E 031°60'42734422.0
2014-Mar-31 23:33N 31°14' E 121°30'4273129278.8
2014-Mar-31 23:31N 46°57' E 031°60'42734419.5
2014-Mar-31 22:33N 31°14' E 121°30'4273127141.8
2014-Mar-31 22:31N 46°57' E 031°60'42734422.0
2014-Mar-31 21:33N 31°14' E 121°30'4273128201.5
2014-Mar-31 21:31N 46°57' E 031°60'42734420.7
2014-Mar-31 20:33N 31°14' E 121°30'4273127141.9
2014-Mar-31 20:31N 46°57' E 031°60'42734422.0
2014-Mar-31 19:33N 31°14' E 121°30'4273127142.1
2014-Mar-31 19:31N 46°57' E 031°60'42734420.7
2014-Mar-31 18:33N 31°14' E 121°30'4274301686.8
2014-Mar-31 18:32N 46°56' E 031°59'0 0.1
2014-Mar-31 17:33N 46°57' E 031°59'427443341.3
2014-Mar-31 17:27N 31°14' E 121°30'424024741.7
2014-Mar-31 17:17N 44°36' E 033°32'42405819.9
2014-Mar-31 16:33N 31°14' E 121°30'42743077233.5
2014-Mar-31 16:33N 46°57' E 031°59'15417302.5
2014-Mar-31 16:32N 44°37' E 033°31'0 0.1
2014-Mar-31 15:33N 44°37' E 033°31'4240848097.5
2014-Mar-31 15:33N 31°14' E 121°30'4274307726.2
2014-Mar-31 15:32N 46°57' E 031°59'0 0.5
2014-Mar-31 14:33N 46°57' E 031°60'154276398.5
2014-Mar-31 14:33N 44°37' E 033°31'4240462595.3
2014-Mar-31 14:33N 31°14' E 121°30'0 0.4
2014-Mar-31 13:33N 31°14' E 121°29'4240203525.2
2014-Mar-31 13:32N 44°37' E 033°31'1542318.1
2014-Mar-31 13:28N 46°57' E 031°60'153168.4
2014-Mar-31 12:33N 44°38' E 033°31'4240508773.6
2014-Mar-31 12:33N 31°14' E 121°29'4273132612.2
2014-Mar-31 12:31N 46°57' E 031°60'42734439.6
2014-Mar-31 11:33N 31°14' E 121°29'4240200854.2
2014-Mar-31 11:32N 44°37' E 033°31'1549389.2
2014-Mar-31 11:31N 46°57' E 031°60'154157.1
2014-Mar-31 10:32N 44°37' E 033°31'15414579.1
2014-Mar-31 10:31N 46°57' E 031°59'4275260825.7
2014-Mar-31 10:31N 31°14' E 121°30'42414435.7
2014-Mar-31 09:33N 44°37' E 033°31'15469247.5
2014-Mar-31 09:33N 46°57' E 031°59'427435617.8
2014-Mar-31 09:26N 31°14' E 121°30'42414796.0
2014-Mar-31 08:33N 44°37' E 033°31'15411303.7
2014-Mar-31 08:32N 46°57' E 031°60'427341918.7
2014-Mar-31 08:26N 31°14' E 121°30'42414852.5
2014-Mar-31 07:33N 44°37' E 033°31'1546440.7
2014-Mar-31 07:32N 46°57' E 031°60'427341577.1
2014-Mar-31 07:26N 31°14' E 121°30'42404844.5
2014-Mar-31 06:33N 44°37' E 033°31'1546922.7
2014-Mar-31 06:32N 46°57' E 031°60'427310624.4
2014-Mar-31 06:08N 31°14' E 121°30'42417266.1
2014-Mar-31 05:33N 44°37' E 033°31'15411079.2
2014-Mar-31 05:32N 46°57' E 031°60'427310609.8
2014-Mar-31 05:08N 31°14' E 121°30'42407352.8
2014-Mar-31 04:33N 44°38' E 033°31'1537453.4
2014-Mar-31 04:32N 46°57' E 031°60'427341691.5
2014-Mar-31 04:26N 31°14' E 121°30'42404839.9
2014-Mar-31 03:33N 44°38' E 033°31'1537166.8
2014-Mar-31 03:32N 46°57' E 031°60'42731709351.6
2014-Mar-31 03:32N 31°14' E 121°30'42404340.3
2014-Mar-31 02:33N 44°36' E 033°32'1557328.7
2014-Mar-31 02:32N 46°57' E 031°60'42731923021.7
2014-Mar-31 02:32N 31°14' E 121°30'42734078.5
2014-Mar-31 01:29N 46°57' E 031°60'427312132.6
2014-Mar-31 01:08N 31°14' E 121°30'42737239.6
2014-Mar-31 00:32N 46°57' E 031°60'4273439548.0
2014-Mar-31 00:32N 31°14' E 121°30'0 0.0
2014-Mar-30 23:32N 31°14' E 121°30'4273466187.3
2014-Mar-30 23:31N 46°57' E 031°60'0 0.0
2014-Mar-30 22:31N 46°57' E 031°60'427346903.0
2014-Mar-30 22:26N 31°14' E 121°30'42734700.3
2014-Mar-30 21:31N 46°57' E 031°60'4273105371.1
2014-Mar-30 21:29N 31°14' E 121°30'42734454.0
2014-Mar-30 20:31N 46°57' E 031°60'427322393.3
2014-Mar-30 20:20N 31°14' E 121°30'42735283.0
2014-Mar-30 19:31N 46°57' E 031°60'427346903.0
2014-Mar-30 19:26N 31°14' E 121°30'42401888.0
2014-Mar-30 17:11N 44°36' E 033°32'1 1.1
2014-Mar-30 16:30N 44°37' E 033°31'424125400.9
2014-Mar-30 16:20N 31°14' E 121°30'42735394.2
2014-Mar-30 15:32N 46°57' E 031°60'0 0.0
2014-Mar-30 14:32N 46°57' E 031°60'4273530488.4
2014-Mar-30 14:32N 31°14' E 121°30'0 0.1
2014-Mar-30 13:33N 31°14' E 121°30'4273274713.4
2014-Mar-30 13:32N 46°57' E 031°60'42734316.1
2014-Mar-30 12:33N 31°15' E 121°30'4273427295.6
2014-Mar-30 12:32N 46°57' E 031°60'42734340.9
2014-Mar-30 11:33N 31°14' E 121°30'4273274715.0
2014-Mar-30 11:32N 46°57' E 031°60'42734339.7
2014-Mar-30 10:33N 31°14' E 121°30'4273290266.9
2014-Mar-30 10:32N 46°57' E 031°60'42734361.4
2014-Mar-30 09:33N 31°15' E 121°30'4273207873.1
2014-Mar-30 09:32N 46°57' E 031°60'0 0.0
2014-Mar-30 08:33N 46°57' E 031°60'4273641005.6
2014-Mar-30 08:33N 31°14' E 121°30'1 1.1
2014-Mar-30 07:33N 31°15' E 121°30'4273113943.0
2014-Mar-30 07:31N 46°57' E 031°60'42744282.1
2014-Mar-30 06:31N 31°14' E 121°30'42742197948.2
2014-Mar-30 06:31N 46°57' E 031°60'0 0.0
2014-Mar-30 05:31N 46°57' E 031°60'4274549545.1
2014-Mar-30 05:31N 31°13' E 121°30'42744309.0
2014-Mar-30 04:31N 46°57' E 031°60'4274530596.5
2014-Mar-30 04:31N 31°13' E 121°30'42744307.8
2014-Mar-30 03:31N 46°57' E 031°60'0 0.0
2014-Mar-30 02:31N 46°57' E 031°60'427410474.8
2014-Mar-30 02:07N 31°13' E 121°30'42747220.8
2014-Mar-30 01:31N 46°57' E 031°60'427410481.8
2014-Mar-30 01:07N 31°13' E 121°30'42747217.3
2014-Mar-30 00:31N 46°57' E 031°60'427410474.7
2014-Mar-30 00:07N 31°13' E 121°30'42747220.7
2014-Mar-29 23:31N 46°57' E 031°60'427420543.8
2014-Mar-29 23:19N 31°13' E 121°30'42745397.2
2014-Mar-29 22:31N 46°57' E 031°60'0 0.0
2014-Mar-29 21:31N 46°57' E 031°60'427410460.4
2014-Mar-29 21:07N 31°13' E 121°30'42747433.5
2014-Mar-29 20:32N 46°57' E 031°60'427418996.7
2014-Mar-29 20:19N 31°13' E 121°30'42745642.6
2014-Mar-29 19:33N 46°57' E 031°60'427417625.8
2014-Mar-29 19:19N 31°13' E 121°30'42745285.9
2014-Mar-29 18:30N 46°57' E 031°60'427422332.8
2014-Mar-29 18:19N 31°13' E 121°30'42745634.3
2014-Mar-29 17:33N 46°57' E 031°60'427430230.4
2014-Mar-29 17:25N 31°13' E 121°30'42744979.7
2014-Mar-29 16:33N 46°57' E 031°60'4274101902.5
2014-Mar-29 16:31N 31°13' E 121°30'42744461.4
2014-Mar-29 15:33N 46°57' E 031°60'0 0.0
2014-Mar-29 14:33N 46°57' E 031°60'4274101902.5
2014-Mar-29 14:31N 31°13' E 121°30'0 0.0
2014-Mar-29 13:32N 31°13' E 121°30'4275295939.9
2014-Mar-29 13:32N 46°57' E 031°59'153338.0
2014-Mar-29 13:04N 44°37' E 033°31'42408233.7
2014-Mar-29 12:33N 31°14' E 121°30'4241636082.2
2014-Mar-29 12:33N 44°37' E 033°31'1541763.0
2014-Mar-29 12:28N 46°57' E 031°60'154169.1
2014-Mar-29 11:33N 44°37' E 033°31'42411696558.2
2014-Mar-29 11:33N 31°15' E 121°32'427448387.1
2014-Mar-29 11:28N 46°57' E 031°60'154162.8
2014-Mar-29 10:31N 44°37' E 033°31'15429156.7
2014-Mar-29 10:31N 46°57' E 031°60'154158.0
2014-Mar-29 09:32N 44°37' E 033°31'1545891.2
2014-Mar-29 09:31N 46°57' E 031°60'154158.3
2014-Mar-29 08:32N 44°37' E 033°31'1545594.6
2014-Mar-29 08:31N 46°57' E 031°60'154159.3
2014-Mar-29 07:33N 44°37' E 033°31'1544467.1
2014-Mar-29 07:31N 46°57' E 031°60'154156.4
2014-Mar-29 06:32N 44°37' E 033°31'1549718.7
2014-Mar-29 06:31N 46°57' E 031°60'4273126099.7
2014-Mar-29 06:29N 31°14' E 121°30'42414487.3
2014-Mar-29 05:32N 44°37' E 033°31'1547288.5
2014-Mar-29 05:31N 46°57' E 031°60'4273126099.7
2014-Mar-29 05:29N 31°14' E 121°30'42404595.1
2014-Mar-29 04:33N 44°36' E 033°32'1553570.5
2014-Mar-29 04:31N 46°57' E 031°60'427318271.0
2014-Mar-29 04:17N 31°14' E 121°30'42735578.0
2014-Mar-29 03:31N 46°57' E 031°60'4273125074.5
2014-Mar-29 03:29N 31°14' E 121°30'42734425.8
2014-Mar-29 02:31N 46°57' E 031°60'427318249.3
2014-Mar-29 02:17N 31°14' E 121°30'42735578.0
2014-Mar-29 01:31N 46°57' E 031°60'4273125074.5
2014-Mar-29 01:29N 31°14' E 121°30'42734424.6
2014-Mar-29 00:31N 46°57' E 031°60'0 0.0
2014-Mar-28 23:31N 46°57' E 031°60'4273125074.8
2014-Mar-28 23:29N 31°14' E 121°30'42734424.6
2014-Mar-28 22:31N 46°57' E 031°60'427312788.2
2014-Mar-28 22:11N 31°14' E 121°30'42736420.8
2014-Mar-28 21:31N 46°57' E 031°60'427331785.5
2014-Mar-28 21:23N 31°14' E 121°30'42734935.6
2014-Mar-28 20:31N 46°57' E 031°60'427331851.3
2014-Mar-28 20:23N 31°14' E 121°30'42734935.6
2014-Mar-28 19:31N 46°57' E 031°60'427331851.3
2014-Mar-28 19:23N 31°14' E 121°30'424064960.1
2014-Mar-28 19:19N 44°36' E 033°32'1 1.2
2014-Mar-28 18:32N 44°37' E 033°31'1548656.8
2014-Mar-28 18:31N 46°57' E 031°60'427318249.3
2014-Mar-28 18:17N 31°14' E 121°30'42405871.4
2014-Mar-28 17:33N 44°37' E 033°31'1543595.3
2014-Mar-28 17:31N 46°57' E 031°60'4273122096.7
2014-Mar-28 17:29N 31°14' E 121°30'42414400.7
2014-Mar-28 16:31N 44°37' E 033°31'15469244.0
2014-Mar-28 16:31N 46°57' E 031°60'  
Track history (hours):
 
Tides and Currents Weather Stations Pressure Air Temp Water Temp Dewpoint Dewpoint Depression Visibility Wind Speed Wind Dir Waves Ship Positions

Bugsky

Last reported at 2014-Apr-07 16:30 UTC. Time now 2014-Jul-28 16:31 UTC.
Position N 31°14' E 121°30'.
Warning: this ship's position is months out of date.

Length 13 m.

Type: Tug. MMSI: 272016200.

Date/timePositionNaut miles runAvg speedWind from/ knotsBaromVisibWave heightAir tempDewpointWater temp
2014-Apr-07 16:30N 31°14' E 121°30'0 0.0
2014-Apr-07 15:18N 31°14' E 121°30'427327423.3
2014-Apr-07 15:09N 46°57' E 031°60'0 0.0
2014-Apr-07 14:33N 46°57' E 031°60'427396757.7
2014-Apr-07 14:30N 31°14' E 121°30'1 1.1
2014-Apr-07 13:33N 31°15' E 121°30'4273530429.8
2014-Apr-07 13:33N 46°57' E 031°60'0 0.0
2014-Apr-07 12:33N 46°57' E 031°60'4273295829.4
2014-Apr-07 12:32N 31°15' E 121°30'1 0.6
2014-Apr-07 11:33N 31°15' E 121°31'4273307691.7
2014-Apr-07 11:33N 46°57' E 031°60'42734331.2
2014-Apr-07 10:33N 31°14' E 121°30'4273320509.2
2014-Apr-07 10:33N 46°57' E 031°60'0 0.0
2014-Apr-07 09:33N 46°57' E 031°60'4273480764.2
2014-Apr-07 09:32N 31°14' E 121°30'0 0.1
2014-Apr-07 08:33N 31°14' E 121°30'4273327328.5
2014-Apr-07 08:33N 46°57' E 031°60'42734330.0
2014-Apr-07 07:33N 31°14' E 121°30'4273327329.0
2014-Apr-07 07:33N 46°57' E 031°60'0 0.0
2014-Apr-07 06:33N 46°57' E 031°60'427311879.7
2014-Apr-07 06:11N 31°14' E 121°30'42736193.3
2014-Apr-07 05:30N 46°57' E 031°60'4273439548.7
2014-Apr-07 05:29N 31°14' E 121°30'42734319.0
2014-Apr-07 04:30N 46°57' E 031°60'0 0.0
2014-Apr-07 03:33N 46°57' E 031°60'427326755.1
2014-Apr-07 03:23N 31°14' E 121°30'42735085.7
2014-Apr-07 02:33N 46°57' E 031°60'427316418.5
2014-Apr-07 02:17N 31°14' E 121°30'42735772.7
2014-Apr-07 01:33N 46°57' E 031°60'42739290.0
2014-Apr-07 01:05N 31°14' E 121°30'42737917.8
2014-Apr-07 00:33N 46°57' E 031°60'427326708.7
2014-Apr-07 00:23N 31°14' E 121°30'42735085.7
2014-Apr-06 23:33N 46°57' E 031°60'427371223.1
2014-Apr-06 23:29N 31°14' E 121°30'42734547.5
2014-Apr-06 22:33N 46°57' E 031°60'0 0.0
2014-Apr-06 21:33N 46°57' E 031°60'427371223.0
2014-Apr-06 21:29N 31°14' E 121°30'42734546.2
2014-Apr-06 20:33N 46°57' E 031°60'0 0.0
2014-Apr-06 19:33N 46°57' E 031°60'427326708.7
2014-Apr-06 19:23N 31°14' E 121°30'42734893.2
2014-Apr-06 18:31N 46°57' E 031°60'427333736.3
2014-Apr-06 18:23N 31°14' E 121°30'42734893.1
2014-Apr-06 17:31N 46°57' E 031°60'4273158600.0
2014-Apr-06 17:29N 31°14' E 121°30'424114415.5
2014-Apr-06 17:11N 44°37' E 033°31'0 0.0
2014-Apr-06 16:33N 44°37' E 033°31'1543337.5
2014-Apr-06 16:31N 46°57' E 031°60'4273132623.6
2014-Apr-06 16:29N 31°14' E 121°30'42414513.9
2014-Apr-06 15:32N 44°37' E 033°31'1545484.2
2014-Apr-06 15:31N 46°57' E 031°60'427318358.2
2014-Apr-06 15:17N 31°14' E 121°30'42405851.2
2014-Apr-06 14:33N 44°37' E 033°31'1543619.6
2014-Apr-06 14:31N 46°57' E 031°60'427318358.2
2014-Apr-06 14:17N 31°14' E 121°30'0 0.6
2014-Apr-06 13:33N 31°14' E 121°29'4240231276.5
2014-Apr-06 13:32N 44°37' E 033°31'1545377.9
2014-Apr-06 13:31N 46°57' E 031°60'42734483.3
2014-Apr-06 12:33N 31°15' E 121°30'42402180564.3
2014-Apr-06 12:33N 44°37' E 033°31'1543418.6
2014-Apr-06 12:31N 46°57' E 031°60'154161.4
2014-Apr-06 11:33N 44°37' E 033°31'4240726857.3
2014-Apr-06 11:33N 31°14' E 121°29'4273104642.7
2014-Apr-06 11:31N 46°57' E 031°60'154161.0
2014-Apr-06 10:33N 44°37' E 033°31'4241293579.0
2014-Apr-06 10:32N 31°14' E 121°30'4273142448.2
2014-Apr-06 10:31N 46°57' E 031°60'154161.0
2014-Apr-06 09:33N 44°37' E 033°31'1543438.7
2014-Apr-06 09:31N 46°57' E 031°60'427335611.5
2014-Apr-06 09:23N 31°14' E 121°30'42405056.6
2014-Apr-06 08:33N 44°37' E 033°31'1543819.3
2014-Apr-06 08:31N 46°57' E 031°60'154160.3
2014-Apr-06 07:33N 44°37' E 033°31'1543691.1
2014-Apr-06 07:31N 46°57' E 031°60'427310168.0
2014-Apr-06 07:05N 31°14' E 121°30'42417606.4
2014-Apr-06 06:32N 44°37' E 033°31'4240436165.3
2014-Apr-06 06:31N 31°14' E 121°30'4273334434.4
2014-Apr-06 06:31N 46°57' E 031°60'154157.9
2014-Apr-06 05:32N 44°37' E 033°31'1546087.2
2014-Apr-06 05:31N 46°57' E 031°60'154160.6
2014-Apr-06 04:33N 44°37' E 033°31'1543618.7
2014-Apr-06 04:31N 46°57' E 031°60'154159.1
2014-Apr-06 03:33N 44°37' E 033°31'1544774.9
2014-Apr-06 03:31N 46°57' E 031°60'42749467.5
2014-Apr-06 03:04N 31°14' E 121°30'42408355.5
2014-Apr-06 02:33N 44°36' E 033°32'1553714.4
2014-Apr-06 02:31N 46°57' E 031°60'0 0.0
2014-Apr-06 01:31N 46°57' E 031°60'427417056.2
2014-Apr-06 01:16N 31°14' E 121°30'42745702.3
2014-Apr-06 00:31N 46°57' E 031°60'427484069.3
2014-Apr-06 00:28N 31°14' E 121°30'42744502.4
2014-Apr-05 23:31N 46°57' E 031°60'427412171.4
2014-Apr-05 23:10N 31°14' E 121°30'42746594.4
2014-Apr-05 22:31N 46°57' E 031°60'42749461.7
2014-Apr-05 22:04N 31°14' E 121°30'42747785.8
2014-Apr-05 21:31N 46°57' E 031°60'0 0.0
2014-Apr-05 20:31N 46°57' E 031°60'427417037.3
2014-Apr-05 20:16N 31°14' E 121°30'42745706.5
2014-Apr-05 19:31N 46°57' E 031°60'427417018.4
2014-Apr-05 19:16N 31°14' E 121°30'0 0.0
2014-Apr-05 18:33N 31°14' E 121°30'427497991.5
2014-Apr-05 18:31N 46°57' E 031°60'42744467.1
2014-Apr-05 17:33N 31°14' E 121°30'427498619.8
2014-Apr-05 17:31N 46°57' E 031°60'42744468.4
2014-Apr-05 16:33N 31°14' E 121°30'427497991.6
2014-Apr-05 16:31N 46°57' E 031°60'42734468.2
2014-Apr-05 15:33N 31°14' E 121°30'427398616.1
2014-Apr-05 15:31N 46°57' E 031°60'42744467.1
2014-Apr-05 14:33N 31°14' E 121°30'427497991.6
2014-Apr-05 14:31N 46°57' E 031°60'0 0.0
2014-Apr-05 13:31N 46°57' E 031°60'427427229.5
2014-Apr-05 13:21N 31°14' E 121°30'42745069.1
2014-Apr-05 12:31N 46°57' E 031°60'427411972.5
2014-Apr-05 12:09N 31°14' E 121°30'42746648.5
2014-Apr-05 11:31N 46°57' E 031°60'427427181.4
2014-Apr-05 11:21N 31°14' E 121°30'42745171.3
2014-Apr-05 10:32N 46°57' E 031°60'427458055.3
2014-Apr-05 10:27N 31°14' E 121°30'42744613.1
2014-Apr-05 09:32N 46°57' E 031°60'427458055.4
2014-Apr-05 09:27N 31°14' E 121°30'42744375.6
2014-Apr-05 08:29N 46°57' E 031°60'427434650.2
2014-Apr-05 08:21N 31°14' E 121°30'42745176.5
2014-Apr-05 07:32N 46°57' E 031°60'0 0.0
2014-Apr-05 06:32N 46°57' E 031°60'0 0.0
2014-Apr-05 05:32N 46°57' E 031°60'0 0.0
2014-Apr-05 04:32N 46°57' E 031°60'427457837.1
2014-Apr-05 04:27N 31°14' E 121°30'42744611.7
2014-Apr-05 03:32N 46°57' E 031°60'154154.0
2014-Apr-05 02:32N 44°37' E 033°32'15479069.0
2014-Apr-05 02:32N 46°57' E 031°60'427411438.4
2014-Apr-05 02:09N 31°14' E 121°30'42746825.5
2014-Apr-05 01:32N 46°57' E 031°60'427457837.2
2014-Apr-05 01:27N 31°14' E 121°30'42744614.5
2014-Apr-05 00:32N 46°57' E 031°60'0 0.0
2014-Apr-04 23:32N 46°57' E 031°60'427424576.2
2014-Apr-04 23:21N 31°14' E 121°30'0 0.0
2014-Apr-04 22:33N 31°14' E 121°30'4274161944.0
2014-Apr-04 22:32N 46°57' E 031°60'0 0.0
2014-Apr-04 21:32N 46°57' E 031°60'427424537.0
2014-Apr-04 21:21N 31°14' E 121°30'42745171.3
2014-Apr-04 20:32N 46°57' E 031°60'427415603.1
2014-Apr-04 20:15N 31°14' E 121°30'0 0.0
2014-Apr-04 19:33N 31°14' E 121°30'4274161944.1
2014-Apr-04 19:32N 46°57' E 031°60'0 0.0
2014-Apr-04 18:32N 46°57' E 031°60'0 0.0
2014-Apr-04 17:32N 46°57' E 031°60'15318384.8
2014-Apr-04 17:31N 44°38' E 033°31'424015967.5
2014-Apr-04 17:15N 31°14' E 121°30'42416039.0
2014-Apr-04 16:33N 44°37' E 033°31'1546442.1
2014-Apr-04 16:32N 46°57' E 031°60'42734388.0
2014-Apr-04 15:33N 31°14' E 121°30'4273480756.0
2014-Apr-04 15:33N 46°57' E 031°60'15461545.5
2014-Apr-04 15:33N 44°37' E 033°31'0 0.0
2014-Apr-04 14:33N 44°37' E 033°31'15417305.9
2014-Apr-04 14:33N 46°57' E 031°60'427447192.3
2014-Apr-04 14:27N 31°14' E 121°30'2 1.8
2014-Apr-04 13:33N 31°15' E 121°31'42412180960.7
2014-Apr-04 13:33N 44°37' E 033°31'15417871.8
2014-Apr-04 13:33N 46°57' E 031°60'153154.3
2014-Apr-04 12:33N 44°38' E 033°31'15322062.0
2014-Apr-04 12:33N 46°57' E 031°60'4273668829.8
2014-Apr-04 12:32N 31°15' E 121°30'1 0.6
2014-Apr-04 11:33N 31°15' E 121°31'42417633181.3
2014-Apr-04 11:33N 44°37' E 033°31'15414963.2
2014-Apr-04 11:33N 46°57' E 031°60'154154.9
2014-Apr-04 10:33N 44°37' E 033°31'15424083.6
2014-Apr-04 10:33N 46°57' E 031°60'4274732606.2
2014-Apr-04 10:32N 31°15' E 121°31'42414270.4
2014-Apr-04 09:33N 44°37' E 033°31'154110783.1
2014-Apr-04 09:33N 46°57' E 031°60'154156.1
2014-Apr-04 08:34N 44°37' E 033°31'15410860.7
2014-Apr-04 08:33N 46°57' E 031°60'427454171.3
2014-Apr-04 08:28N 31°14' E 121°30'42414613.6
2014-Apr-04 07:33N 44°37' E 033°31'15469238.7
2014-Apr-04 07:33N 46°57' E 031°60'427415323.4
2014-Apr-04 07:16N 31°14' E 121°30'42415947.1
2014-Apr-04 06:33N 44°37' E 033°31'15419780.8
2014-Apr-04 06:33N 46°57' E 031°60'427453981.2
2014-Apr-04 06:28N 31°14' E 121°30'42744640.9
2014-Apr-04 05:33N 46°57' E 031°60'15479118.7
2014-Apr-04 05:33N 44°37' E 033°31'1 0.7
2014-Apr-04 04:33N 44°38' E 033°31'15314516.5
2014-Apr-04 04:33N 46°57' E 031°60'427423852.2
2014-Apr-04 04:22N 31°14' E 121°30'42405229.6
2014-Apr-04 03:33N 44°38' E 033°31'15314915.1
2014-Apr-04 03:33N 46°57' E 031°60'427423926.4
2014-Apr-04 03:22N 31°14' E 121°30'42745295.0
2014-Apr-04 02:33N 46°56' E 031°59'1558983.8
2014-Apr-04 02:32N 44°36' E 033°32'424015373.2
2014-Apr-04 02:16N 31°14' E 121°30'42746008.1
2014-Apr-04 01:33N 46°56' E 031°59'427448234.3
2014-Apr-04 01:28N 31°14' E 121°30'42744642.3
2014-Apr-04 00:33N 46°57' E 031°60'427453792.6
2014-Apr-04 00:28N 31°14' E 121°30'42744640.9
2014-Apr-03 23:33N 46°57' E 031°60'427415308.1
2014-Apr-03 23:16N 31°14' E 121°30'42745930.9
2014-Apr-03 22:33N 46°57' E 031°60'427411270.8
2014-Apr-03 22:10N 31°14' E 121°30'42746880.4
2014-Apr-03 21:33N 46°57' E 031°60'427423852.2
2014-Apr-03 21:22N 31°14' E 121°30'42745209.9
2014-Apr-03 20:33N 46°57' E 031°60'427423778.5
2014-Apr-03 20:22N 31°14' E 121°30'42745206.3
2014-Apr-03 19:33N 46°57' E 031°60'427453792.6
2014-Apr-03 19:28N 31°14' E 121°30'42744642.3
2014-Apr-03 18:33N 46°57' E 031°60'0 0.0
2014-Apr-03 17:33N 46°57' E 031°60'153275775.4
2014-Apr-03 17:33N 44°38' E 033°31'424053560.8
2014-Apr-03 17:28N 31°14' E 121°30'42744643.7
2014-Apr-03 16:33N 46°57' E 031°60'1548793.7
2014-Apr-03 16:32N 44°37' E 033°31'424126140.5
2014-Apr-03 16:22N 31°14' E 121°30'42415174.9
2014-Apr-03 15:33N 44°37' E 033°31'1547911.1
2014-Apr-03 15:32N 46°57' E 031°59'427416369.3
2014-Apr-03 15:16N 31°14' E 121°30'42746040.3
2014-Apr-03 14:33N 46°57' E 031°60'15436927.7
2014-Apr-03 14:33N 44°37' E 033°31'424122549.9
2014-Apr-03 14:22N 31°14' E 121°30'42745288.6
2014-Apr-03 13:33N 46°57' E 031°60'1546517.9
2014-Apr-03 13:32N 44°37' E 033°31'424111513.2
2014-Apr-03 13:10N 31°14' E 121°30'42747031.4
2014-Apr-03 12:33N 46°57' E 031°60'1534210.5
2014-Apr-03 12:31N 44°38' E 033°31'424011907.0
2014-Apr-03 12:10N 31°14' E 121°30'42747025.0
2014-Apr-03 11:33N 46°57' E 031°60'154682.3
2014-Apr-03 11:20N 44°37' E 033°31'424164145.1
2014-Apr-03 11:16N 31°14' E 121°30'42746035.6
2014-Apr-03 10:33N 46°57' E 031°60'15412309.5
2014-Apr-03 10:33N 44°37' E 033°31'424153378.7
2014-Apr-03 10:28N 31°14' E 121°30'42744704.8
2014-Apr-03 09:33N 46°57' E 031°60'15461539.6
2014-Apr-03 09:33N 44°37' E 033°31'424110896.7
2014-Apr-03 09:10N 31°14' E 121°30'42416980.4
2014-Apr-03 08:33N 44°37' E 033°31'15492304.9
2014-Apr-03 08:33N 46°57' E 031°60'427447047.9
2014-Apr-03 08:28N 31°14' E 121°30'42414674.3
2014-Apr-03 07:33N 44°37' E 033°31'15479122.4
2014-Apr-03 07:33N 46°57' E 031°60'427422394.0
2014-Apr-03 07:22N 31°14' E 121°30'42415249.8
2014-Apr-03 06:33N 44°37' E 033°31'154184647.6
2014-Apr-03 06:33N 46°57' E 031°60'427410911.1
2014-Apr-03 06:10N 31°14' E 121°30'42747018.5
2014-Apr-03 05:33N 46°57' E 031°60'15450361.6
2014-Apr-03 05:33N 44°37' E 033°31'424148311.6
2014-Apr-03 05:28N 31°14' E 121°30'42404672.5
2014-Apr-03 04:33N 44°38' E 033°31'15391957.6
2014-Apr-03 04:33N 46°57' E 031°60'427310934.2
2014-Apr-03 04:10N 31°14' E 121°30'42406964.0
2014-Apr-03 03:33N 44°38' E 033°31'1534561.2
2014-Apr-03 03:31N 46°57' E 031°60'427474322.1
2014-Apr-03 03:28N 31°14' E 121°30'42404637.1
2014-Apr-03 02:33N 44°36' E 033°32'1555516.0
2014-Apr-03 02:31N 46°57' E 031°60'427427085.7
2014-Apr-03 02:22N 31°14' E 121°30'42745074.1
2014-Apr-03 01:31N 46°57' E 031°60'427427133.5
2014-Apr-03 01:22N 31°14' E 121°30'42745072.4
2014-Apr-03 00:31N 46°57' E 031°60'42749335.4
2014-Apr-03 00:04N 31°14' E 121°30'42747881.5
2014-Apr-02 23:31N 46°57' E 031°60'427427085.7
2014-Apr-02 23:22N 31°14' E 121°30'42745075.8
2014-Apr-02 22:31N 46°57' E 031°60'0 0.0
2014-Apr-02 21:31N 46°57' E 031°60'427427085.7
2014-Apr-02 21:22N 31°14' E 121°30'42745127.1
2014-Apr-02 20:32N 46°57' E 031°59'427464378.7
2014-Apr-02 20:28N 31°14' E 121°30'42744476.2
2014-Apr-02 19:31N 46°57' E 031°60'427494384.5
2014-Apr-02 19:28N 31°14' E 121°30'42744476.2
2014-Apr-02 18:31N 46°57' E 031°60'427494384.5
2014-Apr-02 18:28N 31°14' E 121°30'42404663.9
2014-Apr-02 17:33N 44°38' E 033°31'1533363.0
2014-Apr-02 17:31N 46°57' E 031°60'427417403.5
2014-Apr-02 17:16N 31°14' E 121°30'42415851.5
2014-Apr-02 16:32N 44°37' E 033°31'1545177.9
2014-Apr-02 16:31N 46°57' E 031°60'154161.5
2014-Apr-02 15:33N 44°37' E 033°31'1543239.2
2014-Apr-02 15:31N 46°57' E 031°60'427417423.2
2014-Apr-02 15:16N 31°14' E 121°30'42415951.8
2014-Apr-02 14:33N 44°37' E 033°31'1543717.0
2014-Apr-02 14:31N 46°57' E 031°60'427493240.4
2014-Apr-02 14:28N 31°14' E 121°30'42414456.1
2014-Apr-02 13:31N 44°37' E 033°31'15455397.1
2014-Apr-02 13:31N 46°57' E 031°60'427493240.5
2014-Apr-02 13:28N 31°14' E 121°30'42404585.4
2014-Apr-02 12:32N 44°38' E 033°31'1535203.5
2014-Apr-02 12:31N 46°57' E 031°60'427493240.4
2014-Apr-02 12:28N 31°14' E 121°30'42414654.4
2014-Apr-02 11:33N 44°37' E 033°31'1543550.7
2014-Apr-02 11:31N 46°57' E 031°60'427429360.1
2014-Apr-02 11:22N 31°14' E 121°30'42415192.6
2014-Apr-02 10:33N 44°37' E 033°31'1544072.9
2014-Apr-02 10:31N 46°57' E 031°60'427429360.1
2014-Apr-02 10:22N 31°14' E 121°30'42415253.4
2014-Apr-02 09:33N 44°37' E 033°31'1543258.3
2014-Apr-02 09:31N 46°57' E 031°60'1 0.7
2014-Apr-02 08:33N 46°57' E 031°59'15425165.9
2014-Apr-02 08:33N 44°37' E 033°31'0 0.0
2014-Apr-02 07:33N 44°37' E 033°31'1544654.9
2014-Apr-02 07:31N 46°57' E 031°59'154159.3
2014-Apr-02 06:33N 44°37' E 033°31'1544989.0
2014-Apr-02 06:31N 46°57' E 031°60'154159.8
2014-Apr-02 05:33N 44°37' E 033°31'1544133.7
2014-Apr-02 05:31N 46°57' E 031°60'427464914.2
2014-Apr-02 05:27N 31°14' E 121°30'42404688.2
2014-Apr-02 04:33N 44°38' E 033°31'1535155.7
2014-Apr-02 04:31N 46°57' E 031°60'427425770.0
2014-Apr-02 04:21N 31°14' E 121°30'42405363.8
2014-Apr-02 03:33N 44°38' E 033°31'1533515.5
2014-Apr-02 03:31N 46°57' E 031°60'155160.8
2014-Apr-02 02:33N 44°36' E 033°32'1554190.8
2014-Apr-02 02:31N 46°57' E 031°60'0 0.0
2014-Apr-02 01:31N 46°57' E 031°60'0 0.0
2014-Apr-02 00:31N 46°57' E 031°60'427416059.2
2014-Apr-02 00:15N 31°14' E 121°30'0 0.0
2014-Apr-01 23:33N 31°14' E 121°30'4274126104.3
2014-Apr-01 23:31N 46°57' E 031°60'0 0.0
2014-Apr-01 22:31N 46°57' E 031°60'0 0.0
2014-Apr-01 21:31N 46°57' E 031°60'427411672.7
2014-Apr-01 21:09N 31°14' E 121°30'42746744.7
2014-Apr-01 20:31N 46°57' E 031°60'427416042.4
2014-Apr-01 20:15N 31°14' E 121°30'42745825.3
2014-Apr-01 19:31N 46°57' E 031°60'427464371.1
2014-Apr-01 19:27N 31°14' E 121°30'0 0.0
2014-Apr-01 18:33N 31°14' E 121°30'4274127146.1
2014-Apr-01 18:31N 46°57' E 031°60'153159.5
2014-Apr-01 17:33N 44°38' E 033°31'1533941.1
2014-Apr-01 17:31N 46°57' E 031°60'154160.4
2014-Apr-01 16:33N 44°37' E 033°31'1543769.0
2014-Apr-01 16:31N 46°57' E 031°60'427411655.1
2014-Apr-01 16:09N 31°14' E 121°30'42417074.3
2014-Apr-01 15:33N 44°37' E 033°31'1544540.4
2014-Apr-01 15:31N 46°57' E 031°60'154159.7
2014-Apr-01 14:33N 44°37' E 033°31'1544196.3
2014-Apr-01 14:31N 46°57' E 031°60'427425726.9
2014-Apr-01 14:21N 31°14' E 121°30'42415260.7
2014-Apr-01 13:32N 44°37' E 033°31'1545540.2
2014-Apr-01 13:31N 46°57' E 031°60'427416042.4
2014-Apr-01 13:15N 31°14' E 121°30'1 1.8
2014-Apr-01 12:33N 31°15' E 121°30'4240130460.2
2014-Apr-01 12:31N 44°38' E 033°31'15316716.1
2014-Apr-01 12:31N 46°57' E 031°60'42734458.7
2014-Apr-01 11:33N 31°15' E 121°30'4240412548.0
2014-Apr-01 11:33N 44°37' E 033°31'1544989.1
2014-Apr-01 11:31N 46°57' E 031°60'42734432.3
2014-Apr-01 10:33N 31°15' E 121°31'4241126170.7
2014-Apr-01 10:31N 44°37' E 033°31'15461553.8
2014-Apr-01 10:31N 46°57' E 031°60'154159.9
2014-Apr-01 09:33N 44°37' E 033°31'1544133.7
2014-Apr-01 09:31N 46°57' E 031°60'427364370.0
2014-Apr-01 09:27N 31°14' E 121°30'42414727.8
2014-Apr-01 08:33N 44°37' E 033°31'1544196.3
2014-Apr-01 08:31N 46°57' E 031°60'427325683.6
2014-Apr-01 08:21N 31°14' E 121°30'42415273.3
2014-Apr-01 07:33N 44°37' E 033°31'1545176.8
2014-Apr-01 07:31N 46°57' E 031°60'427325683.5
2014-Apr-01 07:21N 31°14' E 121°30'42415345.2
2014-Apr-01 06:33N 44°37' E 033°31'1543818.2
2014-Apr-01 06:31N 46°57' E 031°60'154160.2
2014-Apr-01 05:33N 44°37' E 033°31'4240763286.3
2014-Apr-01 05:33N 31°14' E 121°30'4273125074.6
2014-Apr-01 05:31N 46°57' E 031°60'153159.7
2014-Apr-01 04:33N 44°38' E 033°31'4240636018.2
2014-Apr-01 04:33N 31°14' E 121°30'4273126099.7
2014-Apr-01 04:31N 46°57' E 031°60'153159.7
2014-Apr-01 03:33N 44°38' E 033°31'1533858.4
2014-Apr-01 03:31N 46°57' E 031°60'427364100.7
2014-Apr-01 03:27N 31°14' E 121°30'42404763.0
2014-Apr-01 02:33N 44°36' E 033°32'1551654.2
2014-Apr-01 02:28N 46°57' E 031°60'4273260748.5
2014-Apr-01 02:27N 31°14' E 121°30'0 0.0
2014-Apr-01 01:33N 31°14' E 121°30'4273126099.7
2014-Apr-01 01:31N 46°57' E 031°60'42734423.3
2014-Apr-01 00:33N 31°14' E 121°30'4273127141.8
2014-Apr-01 00:31N 46°57' E 031°60'42734422.0
2014-Mar-31 23:33N 31°14' E 121°30'4273129278.8
2014-Mar-31 23:31N 46°57' E 031°60'42734419.5
2014-Mar-31 22:33N 31°14' E 121°30'4273127141.8
2014-Mar-31 22:31N 46°57' E 031°60'42734422.0
2014-Mar-31 21:33N 31°14' E 121°30'4273128201.5
2014-Mar-31 21:31N 46°57' E 031°60'42734420.7
2014-Mar-31 20:33N 31°14' E 121°30'4273127141.9
2014-Mar-31 20:31N 46°57' E 031°60'42734422.0
2014-Mar-31 19:33N 31°14' E 121°30'4273127142.1
2014-Mar-31 19:31N 46°57' E 031°60'42734420.7
2014-Mar-31 18:33N 31°14' E 121°30'4274301686.8
2014-Mar-31 18:32N 46°56' E 031°59'0 0.1
2014-Mar-31 17:33N 46°57' E 031°59'427443341.3
2014-Mar-31 17:27N 31°14' E 121°30'424024741.7
2014-Mar-31 17:17N 44°36' E 033°32'42405819.9
2014-Mar-31 16:33N 31°14' E 121°30'42743077233.5
2014-Mar-31 16:33N 46°57' E 031°59'15417302.5
2014-Mar-31 16:32N 44°37' E 033°31'0 0.1
2014-Mar-31 15:33N 44°37' E 033°31'4240848097.5
2014-Mar-31 15:33N 31°14' E 121°30'4274307726.2
2014-Mar-31 15:32N 46°57' E 031°59'0 0.5
2014-Mar-31 14:33N 46°57' E 031°60'154276398.5
2014-Mar-31 14:33N 44°37' E 033°31'4240462595.3
2014-Mar-31 14:33N 31°14' E 121°30'0 0.4
2014-Mar-31 13:33N 31°14' E 121°29'4240203525.2
2014-Mar-31 13:32N 44°37' E 033°31'1542318.1
2014-Mar-31 13:28N 46°57' E 031°60'153168.4
2014-Mar-31 12:33N 44°38' E 033°31'4240508773.6
2014-Mar-31 12:33N 31°14' E 121°29'4273132612.2
2014-Mar-31 12:31N 46°57' E 031°60'42734439.6
2014-Mar-31 11:33N 31°14' E 121°29'4240200854.2
2014-Mar-31 11:32N 44°37' E 033°31'1549389.2
2014-Mar-31 11:31N 46°57' E 031°60'154157.1
2014-Mar-31 10:32N 44°37' E 033°31'15414579.1
2014-Mar-31 10:31N 46°57' E 031°59'4275260825.7
2014-Mar-31 10:31N 31°14' E 121°30'42414435.7
2014-Mar-31 09:33N 44°37' E 033°31'15469247.5
2014-Mar-31 09:33N 46°57' E 031°59'427435617.8
2014-Mar-31 09:26N 31°14' E 121°30'42414796.0
2014-Mar-31 08:33N 44°37' E 033°31'15411303.7
2014-Mar-31 08:32N 46°57' E 031°60'427341918.7
2014-Mar-31 08:26N 31°14' E 121°30'42414852.5
2014-Mar-31 07:33N 44°37' E 033°31'1546440.7
2014-Mar-31 07:32N 46°57' E 031°60'427341577.1
2014-Mar-31 07:26N 31°14' E 121°30'42404844.5
2014-Mar-31 06:33N 44°37' E 033°31'1546922.7
2014-Mar-31 06:32N 46°57' E 031°60'427310624.4
2014-Mar-31 06:08N 31°14' E 121°30'42417266.1
2014-Mar-31 05:33N 44°37' E 033°31'15411079.2
2014-Mar-31 05:32N 46°57' E 031°60'427310609.8
2014-Mar-31 05:08N 31°14' E 121°30'42407352.8
2014-Mar-31 04:33N 44°38' E 033°31'1537453.4
2014-Mar-31 04:32N 46°57' E 031°60'427341691.5
2014-Mar-31 04:26N 31°14' E 121°30'42404839.9
2014-Mar-31 03:33N 44°38' E 033°31'1537166.8
2014-Mar-31 03:32N 46°57' E 031°60'42731709351.6
2014-Mar-31 03:32N 31°14' E 121°30'42404340.3
2014-Mar-31 02:33N 44°36' E 033°32'1557328.7
2014-Mar-31 02:32N 46°57' E 031°60'42731923021.7
2014-Mar-31 02:32N 31°14' E 121°30'42734078.5
2014-Mar-31 01:29N 46°57' E 031°60'427312132.6
2014-Mar-31 01:08N 31°14' E 121°30'42737239.6
2014-Mar-31 00:32N 46°57' E 031°60'4273439548.0
2014-Mar-31 00:32N 31°14' E 121°30'0 0.0
2014-Mar-30 23:32N 31°14' E 121°30'4273466187.3
2014-Mar-30 23:31N 46°57' E 031°60'0 0.0
2014-Mar-30 22:31N 46°57' E 031°60'427346903.0
2014-Mar-30 22:26N 31°14' E 121°30'42734700.3
2014-Mar-30 21:31N 46°57' E 031°60'4273105371.1
2014-Mar-30 21:29N 31°14' E 121°30'42734454.0
2014-Mar-30 20:31N 46°57' E 031°60'427322393.3
2014-Mar-30 20:20N 31°14' E 121°30'42735283.0
2014-Mar-30 19:31N 46°57' E 031°60'427346903.0
2014-Mar-30 19:26N 31°14' E 121°30'42401888.0
2014-Mar-30 17:11N 44°36' E 033°32'1 1.1
2014-Mar-30 16:30N 44°37' E 033°31'424125400.9
2014-Mar-30 16:20N 31°14' E 121°30'42735394.2
2014-Mar-30 15:32N 46°57' E 031°60'0 0.0
2014-Mar-30 14:32N 46°57' E 031°60'4273530488.4
2014-Mar-30 14:32N 31°14' E 121°30'0 0.1
2014-Mar-30 13:33N 31°14' E 121°30'4273274713.4
2014-Mar-30 13:32N 46°57' E 031°60'42734316.1
2014-Mar-30 12:33N 31°15' E 121°30'4273427295.6
2014-Mar-30 12:32N 46°57' E 031°60'42734340.9
2014-Mar-30 11:33N 31°14' E 121°30'4273274715.0
2014-Mar-30 11:32N 46°57' E 031°60'42734339.7
2014-Mar-30 10:33N 31°14' E 121°30'4273290266.9
2014-Mar-30 10:32N 46°57' E 031°60'42734361.4
2014-Mar-30 09:33N 31°15' E 121°30'4273207873.1
2014-Mar-30 09:32N 46°57' E 031°60'0 0.0
2014-Mar-30 08:33N 46°57' E 031°60'4273641005.6
2014-Mar-30 08:33N 31°14' E 121°30'1 1.1
2014-Mar-30 07:33N 31°15' E 121°30'4273113943.0
2014-Mar-30 07:31N 46°57' E 031°60'42744282.1
2014-Mar-30 06:31N 31°14' E 121°30'42742197948.2
2014-Mar-30 06:31N 46°57' E 031°60'0 0.0
2014-Mar-30 05:31N 46°57' E 031°60'4274549545.1
2014-Mar-30 05:31N 31°13' E 121°30'42744309.0
2014-Mar-30 04:31N 46°57' E 031°60'4274530596.5
2014-Mar-30 04:31N 31°13' E 121°30'42744307.8
2014-Mar-30 03:31N 46°57' E 031°60'0 0.0
2014-Mar-30 02:31N 46°57' E 031°60'427410474.8
2014-Mar-30 02:07N 31°13' E 121°30'42747220.8
2014-Mar-30 01:31N 46°57' E 031°60'427410481.8
2014-Mar-30 01:07N 31°13' E 121°30'42747217.3
2014-Mar-30 00:31N 46°57' E 031°60'427410474.7
2014-Mar-30 00:07N 31°13' E 121°30'42747220.7
2014-Mar-29 23:31N 46°57' E 031°60'427420543.8
2014-Mar-29 23:19N 31°13' E 121°30'42745397.2
2014-Mar-29 22:31N 46°57' E 031°60'0 0.0
2014-Mar-29 21:31N 46°57' E 031°60'427410460.4
2014-Mar-29 21:07N 31°13' E 121°30'42747433.5
2014-Mar-29 20:32N 46°57' E 031°60'427418996.7
2014-Mar-29 20:19N 31°13' E 121°30'42745642.6
2014-Mar-29 19:33N 46°57' E 031°60'427417625.8
2014-Mar-29 19:19N 31°13' E 121°30'42745285.9
2014-Mar-29 18:30N 46°57' E 031°60'427422332.8
2014-Mar-29 18:19N 31°13' E 121°30'42745634.3
2014-Mar-29 17:33N 46°57' E 031°60'427430230.4
2014-Mar-29 17:25N 31°13' E 121°30'42744979.7
2014-Mar-29 16:33N 46°57' E 031°60'4274101902.5
2014-Mar-29 16:31N 31°13' E 121°30'42744461.4
2014-Mar-29 15:33N 46°57' E 031°60'0 0.0
2014-Mar-29 14:33N 46°57' E 031°60'4274101902.5
2014-Mar-29 14:31N 31°13' E 121°30'0 0.0
2014-Mar-29 13:32N 31°13' E 121°30'4275295939.9
2014-Mar-29 13:32N 46°57' E 031°59'153338.0
2014-Mar-29 13:04N 44°37' E 033°31'42408233.7
2014-Mar-29 12:33N 31°14' E 121°30'4241636082.2
2014-Mar-29 12:33N 44°37' E 033°31'1541763.0
2014-Mar-29 12:28N 46°57' E 031°60'154169.1
2014-Mar-29 11:33N 44°37' E 033°31'42411696558.2
2014-Mar-29 11:33N 31°15' E 121°32'427448387.1
2014-Mar-29 11:28N 46°57' E 031°60'154162.8
2014-Mar-29 10:31N 44°37' E 033°31'15429156.7
2014-Mar-29 10:31N 46°57' E 031°60'154158.0
2014-Mar-29 09:32N 44°37' E 033°31'1545891.2
2014-Mar-29 09:31N 46°57' E 031°60'154158.3
2014-Mar-29 08:32N 44°37' E 033°31'1545594.6
2014-Mar-29 08:31N 46°57' E 031°60'154159.3
2014-Mar-29 07:33N 44°37' E 033°31'1544467.1
2014-Mar-29 07:31N 46°57' E 031°60'154156.4
2014-Mar-29 06:32N 44°37' E 033°31'1549718.7
2014-Mar-29 06:31N 46°57' E 031°60'4273126099.7
2014-Mar-29 06:29N 31°14' E 121°30'42414487.3
2014-Mar-29 05:32N 44°37' E 033°31'1547288.5
2014-Mar-29 05:31N 46°57' E 031°60'4273126099.7
2014-Mar-29 05:29N 31°14' E 121°30'42404595.1
2014-Mar-29 04:33N 44°36' E 033°32'1553570.5
2014-Mar-29 04:31N 46°57' E 031°60'427318271.0
2014-Mar-29 04:17N 31°14' E 121°30'42735578.0
2014-Mar-29 03:31N 46°57' E 031°60'4273125074.5
2014-Mar-29 03:29N 31°14' E 121°30'42734425.8
2014-Mar-29 02:31N 46°57' E 031°60'427318249.3
2014-Mar-29 02:17N 31°14' E 121°30'42735578.0
2014-Mar-29 01:31N 46°57' E 031°60'4273125074.5
2014-Mar-29 01:29N 31°14' E 121°30'42734424.6
2014-Mar-29 00:31N 46°57' E 031°60'0 0.0
2014-Mar-28 23:31N 46°57' E 031°60'4273125074.8
2014-Mar-28 23:29N 31°14' E 121°30'42734424.6
2014-Mar-28 22:31N 46°57' E 031°60'427312788.2
2014-Mar-28 22:11N 31°14' E 121°30'42736420.8
2014-Mar-28 21:31N 46°57' E 031°60'427331785.5
2014-Mar-28 21:23N 31°14' E 121°30'42734935.6
2014-Mar-28 20:31N 46°57' E 031°60'427331851.3
2014-Mar-28 20:23N 31°14' E 121°30'42734935.6
2014-Mar-28 19:31N 46°57' E 031°60'427331851.3
2014-Mar-28 19:23N 31°14' E 121°30'424064960.1
2014-Mar-28 19:19N 44°36' E 033°32'1 1.2
2014-Mar-28 18:32N 44°37' E 033°31'1548656.8
2014-Mar-28 18:31N 46°57' E 031°60'427318249.3
2014-Mar-28 18:17N 31°14' E 121°30'42405871.4
2014-Mar-28 17:33N 44°37' E 033°31'1543595.3
2014-Mar-28 17:31N 46°57' E 031°60'4273122096.7
2014-Mar-28 17:29N 31°14' E 121°30'42414400.7
2014-Mar-28 16:31N 44°37' E 033°31'15469244.0
2014-Mar-28 16:31N 46°57' E 031°60'  

Dump ship's entire track history